createdAt,value
2023-05-05T00:00:46.414Z,17.23
2023-05-05T00:01:46.535Z,17.24
2023-05-05T00:02:46.585Z,17.23
2023-05-05T00:03:46.612Z,17.21
2023-05-05T00:04:46.635Z,17.19
2023-05-05T00:05:46.687Z,17.19
2023-05-05T00:06:46.734Z,17.15
2023-05-05T00:07:46.779Z,17.09
2023-05-05T00:08:46.777Z,17.01
2023-05-05T00:09:46.811Z,16.97
2023-05-05T00:10:46.872Z,16.95
2023-05-05T00:11:46.922Z,16.92
2023-05-05T00:12:46.980Z,16.89
2023-05-05T00:13:47.008Z,16.91
2023-05-05T00:14:47.066Z,16.82
2023-05-05T00:15:47.146Z,16.77
2023-05-05T00:16:47.250Z,16.69
2023-05-05T00:17:47.252Z,16.71
2023-05-05T00:18:47.257Z,16.70
2023-05-05T00:19:47.302Z,16.70
2023-05-05T00:20:47.563Z,16.66
2023-05-05T00:21:47.332Z,16.65
2023-05-05T00:22:47.315Z,16.65
2023-05-05T00:23:47.328Z,16.68
2023-05-05T00:24:47.332Z,16.68
2023-05-05T00:25:47.349Z,16.69
2023-05-05T00:26:47.343Z,16.70
2023-05-05T00:27:47.372Z,16.69
2023-05-05T00:28:47.390Z,16.70
2023-05-05T00:29:47.404Z,16.70
2023-05-05T00:30:47.481Z,16.71
2023-05-05T00:31:47.415Z,16.75
2023-05-05T00:32:47.464Z,16.77
2023-05-05T00:33:47.474Z,16.75
2023-05-05T00:34:47.501Z,16.72
2023-05-05T00:35:47.503Z,16.68
2023-05-05T00:36:47.523Z,16.67
2023-05-05T00:37:47.527Z,16.62
2023-05-05T00:38:47.564Z,16.54
2023-05-05T00:39:47.578Z,16.53
2023-05-05T00:40:47.606Z,16.50
2023-05-05T00:41:47.616Z,16.46
2023-05-05T00:42:47.641Z,16.39
2023-05-05T00:43:47.639Z,16.37
2023-05-05T00:44:47.659Z,16.37
2023-05-05T00:45:47.791Z,16.34
2023-05-05T00:46:47.741Z,16.40
2023-05-05T00:47:47.724Z,16.41
2023-05-05T00:48:47.729Z,16.46
2023-05-05T00:49:47.747Z,16.51
2023-05-05T00:50:47.782Z,16.53
2023-05-05T00:51:47.765Z,16.59
2023-05-05T00:52:47.779Z,16.63
2023-05-05T00:53:47.810Z,16.65
2023-05-05T00:54:47.824Z,16.65
2023-05-05T00:55:47.839Z,16.65
2023-05-05T00:56:47.868Z,16.56
2023-05-05T00:57:47.869Z,16.50
2023-05-05T00:58:47.892Z,16.44
2023-05-05T00:59:47.925Z,16.38
2023-05-05T01:00:47.943Z,16.29
2023-05-05T01:01:48.022Z,16.22
2023-05-05T01:02:48.050Z,16.19
2023-05-05T01:03:48.072Z,16.19
2023-05-05T01:04:48.000Z,16.16
2023-05-05T01:05:48.018Z,16.14
2023-05-05T01:06:48.033Z,16.16
2023-05-05T01:07:48.065Z,16.13
2023-05-05T01:08:48.057Z,16.09
2023-05-05T01:09:48.083Z,16.04
2023-05-05T01:10:48.107Z,16.05
2023-05-05T01:11:48.123Z,16.06
2023-05-05T01:12:48.191Z,16.07
2023-05-05T01:13:48.176Z,16.11
2023-05-05T01:14:48.187Z,16.17
2023-05-05T01:15:48.253Z,16.14
2023-05-05T01:16:48.241Z,16.20
2023-05-05T01:17:48.277Z,16.26
2023-05-05T01:18:48.252Z,16.33
2023-05-05T01:19:48.283Z,16.36
2023-05-05T01:20:48.302Z,16.36
2023-05-05T01:21:48.304Z,16.36
2023-05-05T01:22:48.346Z,16.38
2023-05-05T01:23:48.359Z,16.36
2023-05-05T01:24:48.379Z,16.31
2023-05-05T01:25:48.377Z,16.25
2023-05-05T01:26:48.386Z,16.25
2023-05-05T01:27:48.430Z,16.27
2023-05-05T01:28:48.441Z,16.32
2023-05-05T01:29:48.465Z,16.31
2023-05-05T01:30:48.459Z,16.33
2023-05-05T01:31:48.518Z,16.35
2023-05-05T01:32:48.586Z,16.28
2023-05-05T01:33:48.528Z,16.23
2023-05-05T01:34:48.558Z,16.17
2023-05-05T01:35:48.567Z,16.11
2023-05-05T01:36:48.565Z,16.05
2023-05-05T01:37:48.585Z,15.99
2023-05-05T01:38:48.605Z,16.03
2023-05-05T01:39:48.598Z,16.08
2023-05-05T01:40:48.596Z,16.12
2023-05-05T01:41:48.627Z,16.15
2023-05-05T01:42:48.611Z,16.19
2023-05-05T01:43:48.659Z,16.21
2023-05-05T01:44:48.647Z,16.20
2023-05-05T01:45:48.718Z,16.16
2023-05-05T01:46:48.680Z,16.09
2023-05-05T01:47:48.787Z,16.08
2023-05-05T01:48:48.715Z,16.07
2023-05-05T01:49:48.727Z,16.02
2023-05-05T01:50:48.736Z,15.99
2023-05-05T01:51:48.734Z,15.94
2023-05-05T01:52:48.756Z,15.90
2023-05-05T01:53:48.753Z,15.90
2023-05-05T01:54:48.770Z,15.88
2023-05-05T01:55:48.806Z,15.86
2023-05-05T01:56:48.795Z,15.84
2023-05-05T01:57:48.814Z,15.81
2023-05-05T01:58:48.846Z,15.79
2023-05-05T01:59:48.847Z,15.82
2023-05-05T02:00:48.846Z,15.75
2023-05-05T02:01:48.888Z,15.72
2023-05-05T02:02:48.962Z,15.67
2023-05-05T02:03:48.897Z,15.67
2023-05-05T02:04:48.922Z,15.66
2023-05-05T02:05:48.951Z,15.60
2023-05-05T02:06:48.949Z,15.61
2023-05-05T02:07:48.998Z,15.60
2023-05-05T02:08:49.011Z,15.56
2023-05-05T02:09:49.053Z,15.58
2023-05-05T02:10:49.053Z,15.60
2023-05-05T02:11:49.068Z,15.58
2023-05-05T02:12:49.130Z,15.60
2023-05-05T02:13:49.220Z,15.57
2023-05-05T02:14:49.145Z,15.61
2023-05-05T02:15:49.219Z,15.69
2023-05-05T02:16:49.196Z,15.68
2023-05-05T02:17:49.263Z,15.70
2023-05-05T02:18:49.258Z,15.71
2023-05-05T02:19:49.299Z,15.68
2023-05-05T02:20:49.340Z,15.69
2023-05-05T02:21:49.343Z,15.66
2023-05-05T02:22:49.394Z,15.66
2023-05-05T02:23:49.425Z,15.67
2023-05-05T02:24:49.460Z,15.70
2023-05-05T02:25:49.476Z,15.66
2023-05-05T02:26:49.506Z,15.63
2023-05-05T02:27:49.532Z,15.56
2023-05-05T02:28:49.580Z,15.50
2023-05-05T02:29:49.601Z,15.42
2023-05-05T02:30:49.638Z,15.40
2023-05-05T02:31:49.683Z,15.36
2023-05-05T02:32:49.747Z,15.39
2023-05-05T02:33:49.704Z,15.37
2023-05-05T02:34:49.729Z,15.36
2023-05-05T02:35:49.729Z,15.33
2023-05-05T02:36:49.738Z,15.35
2023-05-05T02:37:49.795Z,15.41
2023-05-05T02:38:49.827Z,15.48
2023-05-05T02:39:49.871Z,15.52
2023-05-05T02:40:49.912Z,15.54
2023-05-05T02:41:49.938Z,15.60
2023-05-05T02:42:50.010Z,15.62
2023-05-05T02:43:50.021Z,15.61
2023-05-05T02:44:50.063Z,15.58
2023-05-05T02:45:50.105Z,15.52
2023-05-05T02:46:50.156Z,15.42
2023-05-05T02:47:50.185Z,15.41
2023-05-05T02:48:50.213Z,15.38
2023-05-05T02:49:50.248Z,15.35
2023-05-05T02:50:50.308Z,15.29
2023-05-05T02:51:50.330Z,15.27
2023-05-05T02:52:50.392Z,15.24
2023-05-05T02:53:50.467Z,15.18
2023-05-05T02:54:50.508Z,15.17
2023-05-05T02:55:50.582Z,15.16
2023-05-05T02:56:50.644Z,15.11
2023-05-05T02:57:50.708Z,15.04
2023-05-05T02:58:50.755Z,14.99
2023-05-05T02:59:50.781Z,14.99
2023-05-05T03:00:50.783Z,14.92
2023-05-05T03:01:50.890Z,14.89
2023-05-05T03:02:50.907Z,14.89
2023-05-05T03:03:50.935Z,14.91
2023-05-05T03:04:50.852Z,14.96
2023-05-05T03:05:50.839Z,15.01
2023-05-05T03:06:50.863Z,15.03
2023-05-05T03:07:50.874Z,15.05
2023-05-05T03:08:50.916Z,15.12
2023-05-05T03:09:50.928Z,15.13
2023-05-05T03:10:50.951Z,15.18
2023-05-05T03:11:51.023Z,15.22
2023-05-05T03:12:51.064Z,15.27
2023-05-05T03:13:51.126Z,15.32
2023-05-05T03:14:51.171Z,15.32
2023-05-05T03:15:51.262Z,15.37
2023-05-05T03:16:51.346Z,15.38
2023-05-05T03:17:51.380Z,15.31
2023-05-05T03:18:51.404Z,15.31
2023-05-05T03:19:51.472Z,15.27
2023-05-05T03:20:51.503Z,15.24
2023-05-05T03:21:51.547Z,15.16
2023-05-05T03:22:51.599Z,15.13
2023-05-05T03:23:51.665Z,15.08
2023-05-05T03:24:51.723Z,15.06
2023-05-05T03:25:51.779Z,15.04
2023-05-05T03:26:51.866Z,15.04
2023-05-05T03:27:51.986Z,15.11
2023-05-05T03:28:51.939Z,15.17
2023-05-05T03:29:51.992Z,15.20
2023-05-05T03:30:52.030Z,15.19
2023-05-05T03:31:52.112Z,15.19
2023-05-05T03:32:52.211Z,15.18
2023-05-05T03:33:52.203Z,15.17
2023-05-05T03:34:52.263Z,15.15
2023-05-05T03:35:52.316Z,15.13
2023-05-05T03:36:52.383Z,15.12
2023-05-05T03:37:52.436Z,15.09
2023-05-05T03:38:52.506Z,15.09
2023-05-05T03:39:52.574Z,15.06
2023-05-05T03:40:52.614Z,15.07
2023-05-05T03:41:52.694Z,15.05
2023-05-05T03:42:52.785Z,15.03
2023-05-05T03:43:52.840Z,15.04
2023-05-05T03:44:52.874Z,15.06
2023-05-05T03:45:52.968Z,15.02
2023-05-05T03:46:53.009Z,15.04
2023-05-05T03:47:53.092Z,15.01
2023-05-05T03:48:53.110Z,14.98
2023-05-05T03:49:53.194Z,14.95
2023-05-05T03:50:53.242Z,14.96
2023-05-05T03:51:53.299Z,14.97
2023-05-05T03:52:53.361Z,14.96
2023-05-05T03:53:53.408Z,14.95
2023-05-05T03:54:53.428Z,14.97
2023-05-05T03:55:53.511Z,14.94
2023-05-05T03:56:53.539Z,14.95
2023-05-05T03:57:53.592Z,14.96
2023-05-05T03:58:53.604Z,14.94
2023-05-05T03:59:53.595Z,14.92
2023-05-05T04:00:53.592Z,14.90
2023-05-05T04:01:53.573Z,14.87
2023-05-05T04:02:53.658Z,14.85
2023-05-05T04:03:53.673Z,14.79
2023-05-05T04:04:53.582Z,14.82
2023-05-05T04:05:53.587Z,14.80
2023-05-05T04:06:53.603Z,14.82
2023-05-05T04:07:53.611Z,14.82
2023-05-05T04:08:53.640Z,14.82
2023-05-05T04:09:53.622Z,14.84
2023-05-05T04:10:53.650Z,14.85
2023-05-05T04:11:53.655Z,14.88
2023-05-05T04:12:53.699Z,14.92
2023-05-05T04:13:53.678Z,14.98
2023-05-05T04:14:53.686Z,15.04
2023-05-05T04:15:53.742Z,15.04
2023-05-05T04:16:53.685Z,15.07
2023-05-05T04:17:53.762Z,15.10
2023-05-05T04:18:53.695Z,15.14
2023-05-05T04:19:53.712Z,15.18
2023-05-05T04:20:53.716Z,15.20
2023-05-05T04:21:53.715Z,15.21
2023-05-05T04:22:53.750Z,15.25
2023-05-05T04:23:53.764Z,15.28
2023-05-05T04:24:53.782Z,15.29
2023-05-05T04:25:53.817Z,15.30
2023-05-05T04:26:53.874Z,15.33
2023-05-05T04:27:53.913Z,15.37
2023-05-05T04:28:53.951Z,15.42
2023-05-05T04:29:54.036Z,15.43
2023-05-05T04:30:54.108Z,15.40
2023-05-05T04:31:54.093Z,15.40
2023-05-05T04:32:54.215Z,15.44
2023-05-05T04:33:54.231Z,15.41
2023-05-05T04:34:54.271Z,15.34
2023-05-05T04:35:54.348Z,15.31
2023-05-05T04:36:54.437Z,15.23
2023-05-05T04:37:54.506Z,15.16
2023-05-05T04:38:54.580Z,15.05
2023-05-05T04:39:54.478Z,14.99
2023-05-05T04:40:54.510Z,14.97
2023-05-05T04:41:54.495Z,14.98
2023-05-05T04:42:54.527Z,15.04
2023-05-05T04:43:54.562Z,15.10
2023-05-05T04:44:54.621Z,15.15
2023-05-05T04:45:54.706Z,15.16
2023-05-05T04:46:54.795Z,15.19
2023-05-05T04:47:54.844Z,15.25
2023-05-05T04:48:54.844Z,15.28
2023-05-05T04:49:54.897Z,15.30
2023-05-05T04:50:54.960Z,15.33
2023-05-05T04:51:55.018Z,15.31
2023-05-05T04:52:55.098Z,15.27
2023-05-05T04:53:55.309Z,15.21
2023-05-05T04:54:55.205Z,15.18
2023-05-05T04:55:55.256Z,15.17
2023-05-05T04:56:55.322Z,15.13
2023-05-05T04:57:55.370Z,15.13
2023-05-05T04:58:55.429Z,15.13
2023-05-05T04:59:55.477Z,15.18
2023-05-05T05:00:55.519Z,15.22
2023-05-05T05:01:55.631Z,15.25
2023-05-05T05:02:55.727Z,15.31
2023-05-05T05:03:55.732Z,15.34
2023-05-05T05:04:55.707Z,15.35
2023-05-05T05:05:55.728Z,15.38
2023-05-05T05:06:57.559Z,15.43
2023-05-05T05:07:55.755Z,15.49
2023-05-05T05:08:55.745Z,15.53
2023-05-05T05:09:55.746Z,15.59
2023-05-05T05:10:55.728Z,15.61
2023-05-05T05:11:55.715Z,15.67
2023-05-05T05:12:55.818Z,15.72
2023-05-05T05:13:55.717Z,15.77
2023-05-05T05:14:55.711Z,15.80
2023-05-05T05:15:55.704Z,15.87
2023-05-05T05:16:55.756Z,15.95
2023-05-05T05:17:55.726Z,16.00
2023-05-05T05:18:55.689Z,16.06
2023-05-05T05:19:55.654Z,16.04
2023-05-05T05:20:55.689Z,16.07
2023-05-05T05:21:55.653Z,16.08
2023-05-05T05:22:55.646Z,16.05
2023-05-05T05:23:55.661Z,16.07
2023-05-05T05:24:55.651Z,16.09
2023-05-05T05:25:55.655Z,16.13
2023-05-05T05:26:55.960Z,16.12
2023-05-05T05:28:08.738Z,16.07
2023-05-05T05:28:56.616Z,16.03
2023-05-05T05:29:55.616Z,15.93
2023-05-05T05:30:55.595Z,15.84
2023-05-05T05:31:55.658Z,15.88
2023-05-05T05:32:55.623Z,15.91
2023-05-05T05:33:55.618Z,15.82
2023-05-05T05:34:55.574Z,15.78
2023-05-05T05:35:55.559Z,15.75
2023-05-05T05:36:55.533Z,15.71
2023-05-05T05:37:55.535Z,15.70
2023-05-05T05:38:55.529Z,15.69
2023-05-05T05:39:55.548Z,15.75
2023-05-05T05:40:55.515Z,15.76
2023-05-05T05:41:55.537Z,15.81
2023-05-05T05:42:55.517Z,15.83
2023-05-05T05:43:55.499Z,15.84
2023-05-05T05:44:55.489Z,15.85
2023-05-05T05:45:55.508Z,15.86
2023-05-05T05:46:55.484Z,15.87
2023-05-05T05:47:55.512Z,15.86
2023-05-05T05:48:55.467Z,15.82
2023-05-05T05:49:55.459Z,15.83
2023-05-05T05:50:55.521Z,15.87
2023-05-05T05:51:55.492Z,15.87
2023-05-05T05:52:55.465Z,15.89
2023-05-05T05:53:58.212Z,15.93
2023-05-05T05:54:55.486Z,15.93
2023-05-05T05:55:55.599Z,15.92
2023-05-05T05:56:55.447Z,15.91
2023-05-05T05:57:55.551Z,15.90
2023-05-05T05:58:55.423Z,15.97
2023-05-05T05:59:55.435Z,16.05
2023-05-05T06:00:55.405Z,16.05
2023-05-05T06:01:55.390Z,15.98
2023-05-05T06:02:55.617Z,16.01
2023-05-05T06:03:55.548Z,16.06
2023-05-05T06:04:55.363Z,16.03
2023-05-05T06:05:55.402Z,16.06
2023-05-05T06:06:55.362Z,16.07
2023-05-05T06:07:55.394Z,16.07
2023-05-05T06:08:55.343Z,16.05
2023-05-05T06:09:55.361Z,16.04
2023-05-05T06:10:55.388Z,16.05
2023-05-05T06:11:55.333Z,16.09
2023-05-05T06:12:55.370Z,16.16
2023-05-05T06:13:55.373Z,16.19
2023-05-05T06:14:55.357Z,16.24
2023-05-05T06:15:55.336Z,16.27
2023-05-05T06:16:55.291Z,16.27
2023-05-05T06:17:55.359Z,16.24
2023-05-05T06:18:55.487Z,16.30
2023-05-05T06:19:55.268Z,16.37
2023-05-05T06:20:55.263Z,16.41
2023-05-05T06:21:55.280Z,16.43
2023-05-05T06:22:55.262Z,16.44
2023-05-05T06:23:55.278Z,16.45
2023-05-05T06:24:55.231Z,16.49
2023-05-05T06:25:55.241Z,16.52
2023-05-05T06:26:55.225Z,16.52
2023-05-05T06:27:55.360Z,16.55
2023-05-05T06:28:55.259Z,16.53
2023-05-05T06:29:55.290Z,16.57
2023-05-05T06:30:55.196Z,16.53
2023-05-05T06:31:55.466Z,16.52
2023-05-05T06:32:55.253Z,16.59
2023-05-05T06:33:55.287Z,16.60
2023-05-05T06:34:55.226Z,16.56
2023-05-05T06:35:55.196Z,16.53
2023-05-05T06:36:55.194Z,16.58
2023-05-05T06:37:55.287Z,16.63
2023-05-05T06:38:55.124Z,16.67
2023-05-05T06:39:55.133Z,16.68
2023-05-05T06:40:55.118Z,16.62
2023-05-05T06:41:55.103Z,16.60
2023-05-05T06:42:55.104Z,16.61
2023-05-05T06:43:55.459Z,16.65
2023-05-05T06:44:55.098Z,16.66
2023-05-05T06:45:55.099Z,16.68
2023-05-05T06:46:55.559Z,16.69
2023-05-05T06:47:55.133Z,16.74
2023-05-05T06:48:55.072Z,16.74
2023-05-05T06:49:55.073Z,16.77
2023-05-05T06:50:55.133Z,16.79
2023-05-05T06:51:55.187Z,16.83
2023-05-05T06:52:55.278Z,16.89
2023-05-05T06:53:55.480Z,16.93
2023-05-05T06:54:55.377Z,16.87
2023-05-05T06:55:55.438Z,16.90
2023-05-05T06:56:56.556Z,16.89
2023-05-05T06:57:55.539Z,16.93
2023-05-05T06:58:55.631Z,16.88
2023-05-05T06:59:55.671Z,16.91
2023-05-05T07:00:55.778Z,16.97
2023-05-05T07:01:56.596Z,17.00
2023-05-05T07:02:55.871Z,17.00
2023-05-05T07:03:55.895Z,16.99
2023-05-05T07:04:55.925Z,17.02
2023-05-05T07:05:55.966Z,17.02
2023-05-05T07:06:56.017Z,17.08
2023-05-05T07:07:56.073Z,17.08
2023-05-05T07:08:56.481Z,17.12
2023-05-05T07:09:56.145Z,17.13
2023-05-05T07:10:56.214Z,17.19
2023-05-05T07:11:56.555Z,17.23
2023-05-05T07:12:56.240Z,17.31
2023-05-05T07:13:56.294Z,17.35
2023-05-05T07:14:56.274Z,17.29
2023-05-05T07:15:56.325Z,17.32
2023-05-05T07:16:56.346Z,17.37
2023-05-05T07:17:56.476Z,17.40
2023-05-05T07:18:56.334Z,17.45
2023-05-05T07:19:56.395Z,17.49
2023-05-05T07:20:56.358Z,17.48
2023-05-05T07:21:56.376Z,17.52
2023-05-05T07:22:56.372Z,17.57
2023-05-05T07:23:56.375Z,17.58
2023-05-05T07:24:56.387Z,17.64
2023-05-05T07:25:56.436Z,17.64
2023-05-05T07:26:56.488Z,17.66
2023-05-05T07:27:56.574Z,17.75
2023-05-05T07:28:56.587Z,17.76
2023-05-05T07:29:56.624Z,17.81
2023-05-05T07:30:56.647Z,17.89
2023-05-05T07:31:56.799Z,17.94
2023-05-05T07:32:56.908Z,18.00
2023-05-05T07:33:56.866Z,18.07
2023-05-05T07:34:56.882Z,18.13
2023-05-05T07:35:56.935Z,18.12
2023-05-05T07:36:56.995Z,18.15
2023-05-05T07:37:56.996Z,18.19
2023-05-05T07:38:57.064Z,18.22
2023-05-05T07:39:57.133Z,18.27
2023-05-05T07:40:57.460Z,18.30
2023-05-05T07:41:57.285Z,18.33
2023-05-05T07:42:57.214Z,18.34
2023-05-05T07:43:57.495Z,18.37
2023-05-05T07:44:57.317Z,18.35
2023-05-05T07:45:57.315Z,18.23
2023-05-05T07:46:57.277Z,18.23
2023-05-05T07:47:57.424Z,18.30
2023-05-05T07:48:57.499Z,18.36
2023-05-05T07:49:57.376Z,18.44
2023-05-05T07:50:57.331Z,18.51
2023-05-05T07:51:57.360Z,18.56
2023-05-05T07:53:10.142Z,18.63
2023-05-05T07:53:58.483Z,18.70
2023-05-05T07:54:57.333Z,18.74
2023-05-05T07:55:57.335Z,18.77
2023-05-05T07:56:57.344Z,18.80
2023-05-05T07:57:57.319Z,18.82
2023-05-05T07:58:57.496Z,18.83
2023-05-05T07:59:57.329Z,18.88
2023-05-05T08:00:57.335Z,18.91
2023-05-05T08:01:57.485Z,18.93
2023-05-05T08:02:57.323Z,18.88
2023-05-05T08:03:57.337Z,18.90
2023-05-05T08:04:57.299Z,18.92
2023-05-05T08:05:57.376Z,18.96
2023-05-05T08:06:57.266Z,19.02
2023-05-05T08:07:57.260Z,18.84
2023-05-05T08:08:57.272Z,18.77
2023-05-05T08:09:57.326Z,18.75
2023-05-05T08:10:57.366Z,18.83
2023-05-05T08:11:57.459Z,18.85
2023-05-05T08:12:57.522Z,18.91
2023-05-05T08:13:57.530Z,18.98
2023-05-05T08:14:57.593Z,19.02
2023-05-05T08:15:57.696Z,19.06
2023-05-05T08:16:57.734Z,19.08
2023-05-05T08:17:57.835Z,19.13
2023-05-05T08:18:58.004Z,19.15
2023-05-05T08:19:57.902Z,19.19
2023-05-05T08:20:58.006Z,19.20
2023-05-05T08:22:00.559Z,19.21
2023-05-05T08:22:59.200Z,19.23
2023-05-05T08:23:58.563Z,19.26
2023-05-05T08:24:58.034Z,19.29
2023-05-05T08:25:58.147Z,19.37
2023-05-05T08:26:57.998Z,19.43
2023-05-05T08:27:57.974Z,19.47
2023-05-05T08:28:58.022Z,19.54
2023-05-05T08:29:58.011Z,19.53
2023-05-05T08:30:57.952Z,19.57
2023-05-05T08:31:58.029Z,19.60
2023-05-05T08:32:58.023Z,19.64
2023-05-05T08:33:57.940Z,19.65
2023-05-05T08:34:57.972Z,19.61
2023-05-05T08:35:57.913Z,19.47
2023-05-05T08:36:57.889Z,19.49
2023-05-05T08:37:59.221Z,19.43
2023-05-05T08:38:57.900Z,19.48
2023-05-05T08:39:57.912Z,19.56
2023-05-05T08:40:57.903Z,19.59
2023-05-05T08:41:57.878Z,19.62
2023-05-05T08:42:57.892Z,19.67
2023-05-05T08:43:57.866Z,19.72
2023-05-05T08:44:59.081Z,19.73
2023-05-05T08:45:57.879Z,19.81
2023-05-05T08:46:57.992Z,19.83
2023-05-05T08:47:58.034Z,19.86
2023-05-05T08:48:57.857Z,19.84
2023-05-05T08:49:57.877Z,19.86
2023-05-05T08:50:59.800Z,19.85
2023-05-05T08:51:58.073Z,19.88
2023-05-05T08:52:58.210Z,19.90
2023-05-05T08:53:58.556Z,19.88
2023-05-05T08:54:58.186Z,19.79
2023-05-05T08:55:58.200Z,19.80
2023-05-05T08:56:58.231Z,19.89
2023-05-05T08:57:58.347Z,19.92
2023-05-05T08:58:58.279Z,19.87
2023-05-05T08:59:58.332Z,19.87
2023-05-05T09:00:58.351Z,19.80
2023-05-05T09:01:58.391Z,19.76
2023-05-05T09:02:58.613Z,19.75
2023-05-05T09:03:58.491Z,19.68
2023-05-05T09:04:58.535Z,19.65
2023-05-05T09:05:58.594Z,19.61
2023-05-05T09:06:58.644Z,19.67
2023-05-05T09:07:58.753Z,19.71
2023-05-05T09:08:59.803Z,19.79
2023-05-05T09:09:58.884Z,19.81
2023-05-05T09:10:58.902Z,19.86
2023-05-05T09:11:59.004Z,19.95
2023-05-05T09:12:59.029Z,19.96
2023-05-05T09:13:59.079Z,20.05
2023-05-05T09:14:59.511Z,20.03
2023-05-05T09:15:59.166Z,20.04
2023-05-05T09:16:59.222Z,20.01
2023-05-05T09:17:59.192Z,19.99
2023-05-05T09:18:59.230Z,20.07
2023-05-05T09:19:59.266Z,20.10
2023-05-05T09:20:59.658Z,20.15
2023-05-05T09:21:59.381Z,20.23
2023-05-05T09:22:59.416Z,20.31
2023-05-05T09:24:07.423Z,20.38
2023-05-05T09:25:00.440Z,20.37
2023-05-05T09:25:59.538Z,20.39
2023-05-05T09:26:59.408Z,20.47
2023-05-05T09:27:59.402Z,20.51
2023-05-05T09:28:59.432Z,20.41
2023-05-05T09:29:59.378Z,20.43
2023-05-05T09:30:59.446Z,20.51
2023-05-05T09:31:59.373Z,20.41
2023-05-05T09:32:59.615Z,20.34
2023-05-05T09:33:59.357Z,20.33
2023-05-05T09:34:59.377Z,20.37
2023-05-05T09:35:59.359Z,20.44
2023-05-05T09:36:59.343Z,20.50
2023-05-05T09:37:59.528Z,20.58
2023-05-05T09:38:59.319Z,20.63
2023-05-05T09:39:59.324Z,20.68
2023-05-05T09:40:59.329Z,20.74
2023-05-05T09:41:59.463Z,20.82
2023-05-05T09:42:59.293Z,20.89
2023-05-05T09:43:59.304Z,20.87
2023-05-05T09:44:59.973Z,20.85
2023-05-05T09:45:59.301Z,20.89
2023-05-05T09:46:59.298Z,21.00
2023-05-05T09:48:00.702Z,21.09
2023-05-05T09:48:59.398Z,21.18
2023-05-05T09:49:59.456Z,21.22
2023-05-05T09:50:59.496Z,21.25
2023-05-05T09:51:59.538Z,21.25
2023-05-05T09:52:59.596Z,21.29
2023-05-05T09:53:59.630Z,21.30
2023-05-05T09:54:59.672Z,21.34
2023-05-05T09:55:59.734Z,21.37
2023-05-05T09:56:59.773Z,21.37
2023-05-05T09:57:59.851Z,21.29
2023-05-05T09:58:59.827Z,21.31
2023-05-05T09:59:59.888Z,21.32
2023-05-05T10:00:59.910Z,21.28
2023-05-05T10:02:00.034Z,21.34
2023-05-05T10:03:00.032Z,21.37
2023-05-05T10:03:59.998Z,21.35
2023-05-05T10:05:02.144Z,21.39
2023-05-05T10:06:00.040Z,21.39
2023-05-05T10:07:00.065Z,21.39
2023-05-05T10:08:00.078Z,21.39
2023-05-05T10:09:00.125Z,21.40
2023-05-05T10:10:00.201Z,21.34
2023-05-05T10:11:00.139Z,21.39
2023-05-05T10:12:00.182Z,21.44
2023-05-05T10:13:00.200Z,21.48
2023-05-05T10:14:00.207Z,21.57
2023-05-05T10:15:00.149Z,21.66
2023-05-05T10:16:00.176Z,21.71
2023-05-05T10:17:00.144Z,21.73
2023-05-05T10:18:07.512Z,21.76
2023-05-05T10:19:01.117Z,21.75
2023-05-05T10:20:00.229Z,21.78
2023-05-05T10:21:00.162Z,21.83
2023-05-05T10:22:00.131Z,21.93
2023-05-05T10:23:00.129Z,22.02
2023-05-05T10:24:00.126Z,22.08
2023-05-05T10:25:00.113Z,22.11
2023-05-05T10:26:00.066Z,22.17
2023-05-05T10:27:00.057Z,22.21
2023-05-05T10:28:00.106Z,22.27
2023-05-05T10:29:00.180Z,22.28
2023-05-05T10:30:00.649Z,22.32
2023-05-05T10:31:00.262Z,22.34
2023-05-05T10:32:00.311Z,22.33
2023-05-05T10:34:00.602Z,22.46
2023-05-05T10:35:00.419Z,22.47
2023-05-05T10:36:00.469Z,22.52
2023-05-05T10:37:00.513Z,22.46
2023-05-05T10:38:00.531Z,22.46
2023-05-05T10:39:00.609Z,22.47
2023-05-05T10:40:00.602Z,22.48
2023-05-05T10:41:00.621Z,22.42
2023-05-05T10:42:00.653Z,22.35
2023-05-05T10:43:00.685Z,22.37
2023-05-05T10:44:03.626Z,22.32
2023-05-05T10:45:00.829Z,22.31
2023-05-05T10:46:01.109Z,22.39
2023-05-05T10:47:00.693Z,22.46
2023-05-05T10:48:00.792Z,22.47
2023-05-05T10:49:00.729Z,22.52
2023-05-05T10:50:00.690Z,22.52
2023-05-05T10:51:00.681Z,22.47
2023-05-05T10:52:00.678Z,22.54
2023-05-05T10:53:00.698Z,22.55
2023-05-05T10:54:00.707Z,22.61
2023-05-05T10:55:00.651Z,22.63
2023-05-05T10:56:00.653Z,22.71
2023-05-05T10:57:00.649Z,22.79
2023-05-05T10:58:00.635Z,22.87
2023-05-05T10:59:01.035Z,22.95
2023-05-05T11:00:01.062Z,22.97
2023-05-05T11:01:00.632Z,22.99
2023-05-05T11:02:00.621Z,22.97
2023-05-05T11:03:00.712Z,22.95
2023-05-05T11:04:00.628Z,22.99
2023-05-05T11:05:00.585Z,23.04
2023-05-05T11:06:00.555Z,23.08
2023-05-05T11:07:00.571Z,23.12
2023-05-05T11:08:00.545Z,23.17
2023-05-05T11:09:00.548Z,23.19
2023-05-05T11:10:00.573Z,23.11
2023-05-05T11:11:00.520Z,23.10
2023-05-05T11:12:00.514Z,23.11
2023-05-05T11:13:00.558Z,23.15
2023-05-05T11:14:00.521Z,23.24
2023-05-05T11:15:00.519Z,23.31
2023-05-05T11:16:00.510Z,23.34
2023-05-05T11:17:00.502Z,23.31
2023-05-05T11:18:01.929Z,23.38
2023-05-05T11:19:00.456Z,23.41
2023-05-05T11:20:00.566Z,23.42
2023-05-05T11:21:00.442Z,23.41
2023-05-05T11:22:00.437Z,23.37
2023-05-05T11:23:00.457Z,23.37
2023-05-05T11:24:00.436Z,23.38
2023-05-05T11:25:00.413Z,23.37
2023-05-05T11:26:00.437Z,23.41
2023-05-05T11:27:00.431Z,23.44
2023-05-05T11:28:00.440Z,23.52
2023-05-05T11:29:00.411Z,23.53
2023-05-05T11:30:00.400Z,23.55
2023-05-05T11:31:00.426Z,23.59
2023-05-05T11:32:00.388Z,23.61
2023-05-05T11:33:00.410Z,23.65
2023-05-05T11:34:00.423Z,23.71
2023-05-05T11:35:00.354Z,23.72
2023-05-05T11:36:00.388Z,23.70
2023-05-05T11:37:00.338Z,23.75
2023-05-05T11:38:00.346Z,23.80
2023-05-05T11:39:00.341Z,23.78
2023-05-05T11:40:00.346Z,23.73
2023-05-05T11:41:00.318Z,23.74
2023-05-05T11:42:01.026Z,23.75
2023-05-05T11:43:00.539Z,23.82
2023-05-05T11:44:00.562Z,23.87
2023-05-05T11:45:00.616Z,23.86
2023-05-05T11:46:00.648Z,23.78
2023-05-05T11:47:00.640Z,23.79
2023-05-05T11:48:00.716Z,23.82
2023-05-05T11:49:00.668Z,23.88
2023-05-05T11:50:00.732Z,23.85
2023-05-05T11:51:00.678Z,23.92
2023-05-05T11:52:00.742Z,23.90
2023-05-05T11:53:00.726Z,23.95
2023-05-05T11:54:00.746Z,23.98
2023-05-05T11:55:00.745Z,24.02
2023-05-05T11:56:00.738Z,24.06
2023-05-05T11:57:00.744Z,24.11
2023-05-05T11:58:00.760Z,24.15
2023-05-05T11:59:00.831Z,24.15
2023-05-05T12:00:00.879Z,24.08
2023-05-05T12:01:00.870Z,24.16
2023-05-05T12:02:00.886Z,24.22
2023-05-05T12:03:01.012Z,24.27
2023-05-05T12:04:01.315Z,24.33
2023-05-05T12:05:01.086Z,24.38
2023-05-05T12:06:01.210Z,24.39
2023-05-05T12:07:01.188Z,24.43
2023-05-05T12:08:01.226Z,24.44
2023-05-05T12:09:01.281Z,24.50
2023-05-05T12:10:01.384Z,24.55
2023-05-05T12:11:01.330Z,24.60
2023-05-05T12:12:01.462Z,24.66
2023-05-05T12:13:01.428Z,24.71
2023-05-05T12:14:01.412Z,24.75
2023-05-05T12:15:01.372Z,24.78
2023-05-05T12:16:01.442Z,24.83
2023-05-05T12:17:01.423Z,24.83
2023-05-05T12:18:03.046Z,24.84
2023-05-05T12:19:01.524Z,24.87
2023-05-05T12:20:01.517Z,24.89
2023-05-05T12:21:01.522Z,24.93
2023-05-05T12:22:01.547Z,24.89
2023-05-05T12:23:01.535Z,24.87
2023-05-05T12:24:01.541Z,24.88
2023-05-05T12:25:01.561Z,24.89
2023-05-05T12:26:01.574Z,24.92
2023-05-05T12:27:01.576Z,24.93
2023-05-05T12:28:01.597Z,24.98
2023-05-05T12:29:01.644Z,25.06
2023-05-05T12:30:01.598Z,25.11
2023-05-05T12:31:01.640Z,25.10
2023-05-05T12:32:01.727Z,25.10
2023-05-05T12:33:01.655Z,25.13
2023-05-05T12:34:01.653Z,25.12
2023-05-05T12:35:01.717Z,25.15
2023-05-05T12:36:01.769Z,25.21
2023-05-05T12:37:01.808Z,25.23
2023-05-05T12:38:01.927Z,25.23
2023-05-05T12:39:01.924Z,25.20
2023-05-05T12:40:01.976Z,25.24
2023-05-05T12:41:02.047Z,25.27
2023-05-05T12:42:02.072Z,25.28
2023-05-05T12:43:02.154Z,25.33
2023-05-05T12:44:02.207Z,25.37
2023-05-05T12:45:02.264Z,25.39
2023-05-05T12:46:02.384Z,25.34
2023-05-05T12:47:02.364Z,25.37
2023-05-05T12:48:02.426Z,25.42
2023-05-05T12:49:02.459Z,25.43
2023-05-05T12:50:02.527Z,25.48
2023-05-05T12:51:02.575Z,25.51
2023-05-05T12:52:02.627Z,25.51
2023-05-05T12:53:02.693Z,25.59
2023-05-05T12:54:02.804Z,25.65